createdAt,value
2023-02-22T00:02:42.123Z,27.00
2023-02-22T00:05:17.226Z,26.80
2023-02-22T00:07:45.119Z,25.27
2023-02-22T00:10:23.081Z,24.80
2023-02-22T00:13:00.389Z,24.98
2023-02-22T00:15:30.265Z,24.02
2023-02-22T00:18:00.319Z,25.80
2023-02-22T00:20:30.936Z,23.63
2023-02-22T00:23:02.098Z,22.95
2023-02-22T00:25:36.104Z,25.45
2023-02-22T00:28:05.306Z,25.58
2023-02-22T00:30:34.225Z,25.25
2023-02-22T00:33:02.397Z,25.23
2023-02-22T00:35:34.157Z,26.08
2023-02-22T00:38:04.579Z,25.25
2023-02-22T00:40:36.266Z,25.20
2023-02-22T00:43:07.861Z,25.42
2023-02-22T00:45:37.088Z,25.88
2023-02-22T00:48:06.931Z,26.15
2023-02-22T00:50:35.165Z,25.63
2023-02-22T00:53:08.408Z,25.67
2023-02-22T00:55:41.409Z,26.55
2023-02-22T00:58:16.810Z,25.50
2023-02-22T01:00:48.038Z,27.33
2023-02-22T01:03:18.808Z,25.27
2023-02-22T01:05:50.627Z,26.85
2023-02-22T01:08:33.152Z,26.50
2023-02-22T01:11:00.522Z,26.73
2023-02-22T01:13:50.918Z,26.88
2023-02-22T01:16:33.772Z,26.05
2023-02-22T01:19:14.729Z,26.73
2023-02-22T01:21:45.538Z,26.42
2023-02-22T01:24:34.057Z,24.25
2023-02-22T01:27:04.993Z,24.95
2023-02-22T01:32:21.094Z,23.42
2023-02-22T01:34:49.838Z,24.13
2023-02-22T01:37:27.795Z,24.17
2023-02-22T01:40:10.153Z,25.15
2023-02-22T01:42:41.309Z,23.52
2023-02-22T01:45:30.682Z,25.27
2023-02-22T01:48:22.606Z,23.02
2023-02-22T01:51:13.038Z,24.20
2023-02-22T01:54:09.639Z,24.65
2023-02-22T01:56:40.816Z,25.95
2023-02-22T02:02:25.447Z,24.65
2023-02-22T02:04:56.690Z,24.38
2023-02-22T02:07:25.076Z,23.58
2023-02-22T02:10:00.455Z,23.50
2023-02-22T02:12:34.594Z,23.05
2023-02-22T02:15:18.618Z,25.02
2023-02-22T02:17:47.682Z,24.25
2023-02-22T02:20:24.304Z,23.92
2023-02-22T02:23:30.044Z,24.27
2023-02-22T02:26:15.413Z,21.95
2023-02-22T02:28:42.757Z,23.27
2023-02-22T02:31:37.196Z,23.05
2023-02-22T02:34:33.376Z,23.92
2023-02-22T02:37:11.986Z,23.80
2023-02-22T02:39:53.846Z,22.98
2023-02-22T02:42:28.189Z,22.42
2023-02-22T02:45:10.278Z,22.48
2023-02-22T02:47:55.964Z,22.48
2023-02-22T02:50:46.453Z,23.70
2023-02-22T02:53:17.392Z,23.42
2023-02-22T02:55:50.234Z,24.20
2023-02-22T02:58:23.552Z,23.15
2023-02-22T03:00:57.497Z,23.20
2023-02-22T03:03:40.908Z,23.73
2023-02-22T03:06:33.164Z,23.05
2023-02-22T03:09:43.782Z,23.23
2023-02-22T03:12:32.829Z,22.23
2023-02-22T03:15:47.238Z,22.67
2023-02-22T03:18:33.611Z,21.90
2023-02-22T03:21:24.224Z,23.00
2023-02-22T03:24:27.185Z,21.75
2023-02-22T03:27:06.294Z,22.60
2023-02-22T03:29:44.742Z,21.65
2023-02-22T03:32:20.746Z,21.10
2023-02-22T03:34:57.097Z,20.30
2023-02-22T03:37:34.259Z,20.88
2023-02-22T03:40:14.626Z,20.20
2023-02-22T03:42:55.269Z,20.20
2023-02-22T03:45:29.167Z,20.98
2023-02-22T03:48:14.717Z,21.20
2023-02-22T03:50:49.302Z,21.02
2023-02-22T03:53:26.292Z,20.45
2023-02-22T03:55:59.429Z,22.35
2023-02-22T03:58:33.192Z,22.83
2023-02-22T04:01:00.587Z,21.60
2023-02-22T04:03:29.068Z,23.67
2023-02-22T04:05:56.405Z,22.80
2023-02-22T04:08:24.682Z,22.75
2023-02-22T04:10:52.097Z,22.00
2023-02-22T04:13:22.684Z,21.92
2023-02-22T04:15:54.257Z,22.27
2023-02-22T04:18:26.940Z,21.83
2023-02-22T04:20:57.016Z,22.77
2023-02-22T04:23:44.467Z,23.60
2023-02-22T04:26:12.568Z,24.38
2023-02-22T04:28:40.350Z,24.75
2023-02-22T04:31:17.631Z,23.88
2023-02-22T04:33:45.446Z,25.02
2023-02-22T04:36:16.784Z,24.77
2023-02-22T04:38:47.401Z,25.27
2023-02-22T04:41:15.028Z,24.02
2023-02-22T04:43:42.547Z,23.98
2023-02-22T04:46:19.415Z,25.67
2023-02-22T04:48:46.705Z,25.63
2023-02-22T04:51:16.443Z,25.15
2023-02-22T04:54:04.360Z,24.42
2023-02-22T04:56:47.125Z,25.23
2023-02-22T04:59:19.764Z,26.67
2023-02-22T05:01:54.214Z,26.88
2023-02-22T05:04:23.756Z,26.27
2023-02-22T05:06:56.749Z,26.88
2023-02-22T05:09:37.066Z,29.02
2023-02-22T05:12:04.924Z,28.30
2023-02-22T05:14:32.178Z,28.98
2023-02-22T05:16:59.786Z,31.23
2023-02-22T05:19:27.160Z,32.53
2023-02-22T05:22:06.523Z,31.63
2023-02-22T05:24:38.307Z,31.33
2023-02-22T05:27:07.996Z,33.28
2023-02-22T05:29:41.945Z,32.35
2023-02-22T05:32:09.276Z,33.17
2023-02-22T05:34:51.684Z,33.35
2023-02-22T05:37:28.872Z,32.72
2023-02-22T05:40:01.822Z,35.03
2023-02-22T05:42:29.158Z,34.05
2023-02-22T05:45:10.761Z,35.15
2023-02-22T05:47:49.580Z,34.22
2023-02-22T05:53:09.207Z,34.70
2023-02-22T05:55:42.346Z,36.60
2023-02-22T05:58:12.892Z,35.33
2023-02-22T06:00:47.135Z,34.53
2023-02-22T06:03:39.559Z,33.67
2023-02-22T06:06:15.683Z,34.60
2023-02-22T06:08:46.515Z,33.35
2023-02-22T06:11:17.238Z,34.28
2023-02-22T06:13:54.107Z,34.00
2023-02-22T06:16:27.774Z,35.83
2023-02-22T06:21:28.169Z,34.90
2023-02-22T06:24:02.861Z,35.78
2023-02-22T06:26:55.753Z,34.53
2023-02-22T06:29:24.572Z,35.28
2023-02-22T06:31:52.299Z,36.38
2023-02-22T06:34:28.369Z,36.92
2023-02-22T06:37:00.856Z,34.75
2023-02-22T06:39:35.449Z,34.03
2023-02-22T06:42:10.460Z,36.10
2023-02-22T06:44:37.643Z,35.47
2023-02-22T06:47:10.601Z,35.65
2023-02-22T06:49:37.854Z,36.83
2023-02-22T06:52:07.018Z,37.35
2023-02-22T06:54:40.019Z,35.83
2023-02-22T06:57:10.413Z,36.72
2023-02-22T06:59:43.109Z,35.13
2023-02-22T07:02:24.022Z,36.70
2023-02-22T07:05:03.374Z,33.50
2023-02-22T07:07:30.614Z,37.40
2023-02-22T07:12:43.221Z,35.53
2023-02-22T07:15:26.060Z,36.20
2023-02-22T07:18:11.482Z,35.63
2023-02-22T07:20:44.559Z,36.70
2023-02-22T07:23:23.295Z,36.50
2023-02-22T07:28:43.589Z,35.83
2023-02-22T07:31:11.851Z,35.55
2023-02-22T07:33:41.941Z,35.33
2023-02-22T07:36:13.977Z,35.60
2023-02-22T07:38:41.286Z,35.47
2023-02-22T07:41:11.706Z,36.08
2023-02-22T07:43:48.503Z,36.35
2023-02-22T07:46:41.972Z,37.25
2023-02-22T07:49:15.155Z,35.10
2023-02-22T07:51:42.737Z,34.22
2023-02-22T07:54:10.299Z,34.65
2023-02-22T07:56:48.430Z,35.30
2023-02-22T07:59:20.189Z,35.17
2023-02-22T08:02:09.839Z,33.35
2023-02-22T08:04:37.689Z,33.75
2023-02-22T08:07:06.401Z,35.83
2023-02-22T08:09:39.552Z,35.80
2023-02-22T08:12:11.830Z,34.08
2023-02-22T08:14:39.953Z,33.88
2023-02-22T08:17:09.007Z,33.55
2023-02-22T08:19:37.342Z,34.10
2023-02-22T08:22:04.860Z,34.15
2023-02-22T08:27:14.843Z,32.40
2023-02-22T08:29:42.274Z,31.75
2023-02-22T08:32:11.444Z,32.58
2023-02-22T08:34:38.727Z,32.85
2023-02-22T08:37:06.062Z,31.45
2023-02-22T08:39:45.126Z,32.90
2023-02-22T08:42:19.211Z,31.45
2023-02-22T08:44:50.199Z,32.40
2023-02-22T08:47:28.269Z,30.15
2023-02-22T08:50:01.626Z,31.23
2023-02-22T08:52:37.002Z,29.83
2023-02-22T08:55:11.037Z,29.55
2023-02-22T08:57:48.308Z,29.33
2023-02-22T09:00:40.452Z,29.10
2023-02-22T09:03:23.016Z,28.77
2023-02-22T09:05:59.204Z,29.20
2023-02-22T09:08:34.539Z,27.58
2023-02-22T09:13:53.712Z,27.73
2023-02-22T09:16:26.111Z,26.75
2023-02-22T09:19:04.273Z,27.17
2023-02-22T09:21:42.857Z,25.38
2023-02-22T09:24:23.666Z,26.35
2023-02-22T09:27:03.945Z,27.08
2023-02-22T09:29:42.818Z,25.35
2023-02-22T09:32:47.131Z,23.13
2023-02-22T09:35:23.123Z,23.38
2023-02-22T09:38:08.530Z,23.70
2023-02-22T09:41:01.215Z,21.92
2023-02-22T09:44:13.691Z,22.65
2023-02-22T09:46:57.424Z,21.98
2023-02-22T09:53:28.837Z,17.48
2023-02-22T09:56:26.764Z,19.38
2023-02-22T09:59:04.102Z,20.42
2023-02-22T10:01:43.677Z,18.38
2023-02-22T10:07:29.055Z,14.68
2023-02-22T10:10:15.275Z,13.05
2023-02-22T10:13:22.334Z,13.82
2023-02-22T10:16:07.562Z,13.88
2023-02-22T10:19:14.410Z,14.75
2023-02-22T10:22:32.974Z,14.18
2023-02-22T10:25:24.825Z,14.68
2023-02-22T10:28:21.298Z,15.10
2023-02-22T10:31:08.583Z,14.32
2023-02-22T10:33:55.809Z,13.77
2023-02-22T10:36:48.424Z,14.75
2023-02-22T10:39:36.924Z,13.65
2023-02-22T10:42:34.244Z,15.48
2023-02-22T10:45:34.776Z,14.88
2023-02-22T10:48:18.781Z,15.60
2023-02-22T10:56:57.272Z,14.35
2023-02-22T10:59:36.462Z,15.60
2023-02-22T11:02:15.711Z,14.95
2023-02-22T11:05:07.019Z,15.77
2023-02-22T11:07:48.727Z,15.05
2023-02-22T11:10:51.304Z,16.00
2023-02-22T11:13:45.284Z,15.38
2023-02-22T11:16:36.875Z,14.75
2023-02-22T11:19:26.793Z,14.50
2023-02-22T11:22:19.859Z,14.23
2023-02-22T11:25:07.737Z,14.33
2023-02-22T11:28:03.267Z,13.73
2023-02-22T11:30:36.409Z,14.90
2023-02-22T11:33:33.684Z,15.60
2023-02-22T11:36:11.384Z,15.18
2023-02-22T11:39:00.543Z,16.17
2023-02-22T11:41:36.162Z,14.70
2023-02-22T11:44:32.844Z,16.13
2023-02-22T11:47:07.454Z,15.52
2023-02-22T11:53:13.547Z,15.48
2023-02-22T11:56:40.730Z,16.55
2023-02-22T11:59:34.858Z,16.00
2023-02-22T12:03:01.133Z,15.20
2023-02-22T12:08:54.063Z,14.35
2023-02-22T12:11:43.516Z,14.00
2023-02-22T12:14:39.220Z,14.57
2023-02-22T12:17:21.910Z,13.82
2023-02-22T12:23:27.473Z,13.25
2023-02-22T12:26:11.717Z,13.10
2023-02-22T12:29:09.270Z,14.07
2023-02-22T12:31:38.836Z,12.07
2023-02-22T12:34:40.269Z,11.77
2023-02-22T12:37:19.360Z,14.00
2023-02-22T12:40:27.946Z,13.30
2023-02-22T12:43:34.630Z,12.52
2023-02-22T12:46:21.667Z,13.68
2023-02-22T12:49:38.514Z,13.90
2023-02-22T12:52:50.886Z,13.20
2023-02-22T12:59:04.195Z,13.73
2023-02-22T13:01:51.216Z,11.90
2023-02-22T13:04:21.306Z,12.95
2023-02-22T13:07:27.628Z,13.38
2023-02-22T13:10:31.389Z,11.55
2023-02-22T13:13:39.663Z,14.32
2023-02-22T13:16:25.508Z,12.00
2023-02-22T13:19:17.795Z,11.77
2023-02-22T13:22:06.812Z,10.20
2023-02-22T13:24:57.226Z,12.70
2023-02-22T13:27:37.628Z,12.45
2023-02-22T13:30:36.097Z,11.88
2023-02-22T13:36:33.820Z,11.52
2023-02-22T13:39:36.352Z,13.05
2023-02-22T13:42:43.932Z,12.70
2023-02-22T13:45:34.373Z,10.75
2023-02-22T13:48:37.618Z,14.65
2023-02-22T13:51:54.267Z,12.82
2023-02-22T13:54:56.883Z,12.65
2023-02-22T13:58:07.266Z,10.75
2023-02-22T14:00:54.374Z,11.15
2023-02-22T14:03:44.328Z,10.85
2023-02-22T14:06:45.658Z,10.20
2023-02-22T14:09:54.929Z,10.63
2023-02-22T14:15:29.952Z,9.07
2023-02-22T14:18:21.737Z,9.75
2023-02-22T14:21:26.784Z,9.43
2023-02-22T14:24:26.119Z,9.57
2023-02-22T14:27:18.672Z,9.48
2023-02-22T14:30:03.138Z,9.18
2023-02-22T14:32:42.294Z,8.90
2023-02-22T14:35:27.418Z,9.57
2023-02-22T14:38:08.075Z,9.88
2023-02-22T14:49:26.423Z,9.45
2023-02-22T14:52:14.441Z,9.32
2023-02-22T14:55:55.778Z,7.63
2023-02-22T14:58:38.519Z,8.85
2023-02-22T15:01:55.215Z,10.00
2023-02-22T15:04:35.590Z,8.55
2023-02-22T15:07:37.265Z,8.90
2023-02-22T15:10:30.810Z,8.82
2023-02-22T15:16:08.197Z,8.82
2023-02-22T15:18:50.818Z,9.20
2023-02-22T15:21:31.934Z,9.00
2023-02-22T15:27:03.050Z,9.27
2023-02-22T15:29:52.675Z,7.82
2023-02-22T15:33:02.613Z,9.05
2023-02-22T15:35:58.208Z,9.32
2023-02-22T15:38:43.743Z,10.60
2023-02-22T15:41:28.171Z,10.20
2023-02-22T15:44:22.756Z,12.25
2023-02-22T15:47:01.430Z,9.70
2023-02-22T15:49:48.467Z,9.82
2023-02-22T15:52:42.111Z,9.63
2023-02-22T15:55:31.501Z,9.75
2023-02-22T15:58:36.651Z,10.35
2023-02-22T16:01:19.230Z,10.68
2023-02-22T16:03:56.891Z,11.00
2023-02-22T16:06:39.038Z,9.80
2023-02-22T16:09:36.405Z,13.10
2023-02-22T16:12:24.309Z,11.25
2023-02-22T16:14:54.739Z,13.85
2023-02-22T16:17:56.099Z,14.32
2023-02-22T16:20:36.412Z,11.15
2023-02-22T16:23:36.380Z,11.43
2023-02-22T16:26:33.521Z,12.07
2023-02-22T16:31:55.316Z,10.65
2023-02-22T16:34:26.076Z,10.82
2023-02-22T16:36:59.378Z,11.00
2023-02-22T16:39:40.840Z,10.98
2023-02-22T16:45:15.794Z,10.70
2023-02-22T16:47:59.997Z,10.70
2023-02-22T16:50:33.244Z,9.95
2023-02-22T16:53:11.304Z,8.40
2023-02-22T16:55:38.834Z,10.05
2023-02-22T16:58:25.438Z,10.00
2023-02-22T17:01:01.291Z,10.90
2023-02-22T17:03:29.788Z,10.73
2023-02-22T17:06:02.692Z,9.85
2023-02-22T17:08:52.528Z,10.88
2023-02-22T17:11:38.172Z,12.25
2023-02-22T17:17:06.936Z,11.65
2023-02-22T17:19:51.296Z,11.60
2023-02-22T17:22:27.511Z,10.98
2023-02-22T17:25:10.279Z,12.02
2023-02-22T17:27:46.539Z,12.13
2023-02-22T17:30:26.460Z,12.18
2023-02-22T17:33:03.888Z,10.35
2023-02-22T17:35:49.572Z,11.70
2023-02-22T17:38:28.188Z,11.32
2023-02-22T17:41:06.842Z,11.30
2023-02-22T17:43:47.484Z,10.30
2023-02-22T17:46:21.094Z,10.15
2023-02-22T17:55:02.436Z,9.77
2023-02-22T17:57:47.445Z,8.32
2023-02-22T18:00:35.595Z,8.63
2023-02-22T18:03:19.799Z,8.57
2023-02-22T18:06:37.202Z,7.80
2023-02-22T18:12:13.757Z,7.30
2023-02-22T18:14:53.450Z,8.27
2023-02-22T18:17:23.783Z,8.77
2023-02-22T18:19:56.530Z,7.88
2023-02-22T18:22:35.128Z,8.52
2023-02-22T18:25:16.913Z,8.60
2023-02-22T18:27:57.184Z,8.65
2023-02-22T18:30:24.985Z,8.32
2023-02-22T18:33:01.016Z,7.82
2023-02-22T18:35:37.493Z,7.20
2023-02-22T18:38:14.896Z,8.50
2023-02-22T18:40:55.429Z,8.88
2023-02-22T18:46:25.206Z,8.73
2023-02-22T18:49:08.074Z,7.38
2023-02-22T18:51:40.422Z,9.63
2023-02-22T18:54:18.567Z,7.10
2023-02-22T18:56:55.168Z,7.75
2023-02-22T18:59:26.044Z,7.55
2023-02-22T19:02:09.040Z,7.15
2023-02-22T19:04:44.523Z,7.53
2023-02-22T19:07:29.145Z,8.27
2023-02-22T19:10:07.319Z,8.52
2023-02-22T19:12:43.982Z,9.05
2023-02-22T19:15:13.277Z,8.85
2023-02-22T19:17:46.379Z,9.10
2023-02-22T19:20:13.842Z,8.48
2023-02-22T19:22:48.220Z,9.57
2023-02-22T19:25:18.479Z,9.63
2023-02-22T19:27:51.665Z,9.05
2023-02-22T19:30:21.949Z,10.30
2023-02-22T19:32:54.862Z,9.43
2023-02-22T19:35:33.331Z,9.93
2023-02-22T19:38:00.813Z,11.18
2023-02-22T19:40:32.736Z,10.27
2023-02-22T19:43:14.701Z,10.75
2023-02-22T19:45:55.122Z,11.85
2023-02-22T19:48:26.002Z,10.82
2023-02-22T19:51:02.557Z,10.55
2023-02-22T19:53:34.478Z,10.40
2023-02-22T19:56:17.534Z,10.55
2023-02-22T19:58:48.652Z,10.32
2023-02-22T20:01:28.706Z,9.75
2023-02-22T20:04:13.630Z,10.82
2023-02-22T20:07:07.327Z,10.30
2023-02-22T20:09:44.638Z,10.18
2023-02-22T20:12:37.397Z,11.15
2023-02-22T20:15:22.470Z,10.48
2023-02-22T20:17:58.477Z,11.50
2023-02-22T20:20:54.199Z,9.45
2023-02-22T20:23:40.511Z,10.82
2023-02-22T20:26:27.410Z,10.38
2023-02-22T20:29:01.288Z,10.57
2023-02-22T20:34:44.914Z,11.52
2023-02-22T20:37:16.930Z,12.02
2023-02-22T20:39:54.331Z,12.05
2023-02-22T20:42:22.758Z,11.93
2023-02-22T20:45:00.196Z,12.88
2023-02-22T20:47:39.318Z,13.02
2023-02-22T20:50:14.993Z,13.93
2023-02-22T20:52:48.901Z,14.25
2023-02-22T20:55:25.313Z,14.35
2023-02-22T20:57:57.681Z,14.85
2023-02-22T21:00:28.942Z,14.85
2023-02-22T21:05:46.804Z,14.70
2023-02-22T21:08:17.777Z,16.40
2023-02-22T21:13:30.989Z,16.00
2023-02-22T21:16:02.624Z,15.85
2023-02-22T21:18:33.730Z,15.63
2023-02-22T21:21:19.148Z,16.30
2023-02-22T21:23:55.169Z,15.63
2023-02-22T21:26:27.377Z,16.40
2023-02-22T21:29:09.483Z,15.90
2023-02-22T21:31:37.593Z,16.25
2023-02-22T21:34:07.995Z,15.38
2023-02-22T21:36:39.142Z,16.08
2023-02-22T21:39:20.918Z,15.73
2023-02-22T21:41:59.888Z,19.92
2023-02-22T21:44:30.542Z,18.15
2023-02-22T21:49:42.550Z,17.80
2023-02-22T21:52:12.789Z,17.33
2023-02-22T21:54:43.573Z,17.75
2023-02-22T21:57:15.102Z,18.08
2023-02-22T21:59:51.424Z,17.70
2023-02-22T22:02:40.291Z,17.90
2023-02-22T22:08:07.534Z,19.52
2023-02-22T22:10:40.181Z,18.60
2023-02-22T22:13:20.646Z,18.10
2023-02-22T22:16:34.575Z,17.58
2023-02-22T22:19:33.900Z,16.75
2023-02-22T22:22:08.473Z,15.55
2023-02-22T22:24:44.643Z,15.88
2023-02-22T22:27:15.204Z,16.33
2023-02-22T22:29:50.906Z,17.70
2023-02-22T22:32:44.907Z,15.00
2023-02-22T22:35:18.207Z,16.05
2023-02-22T22:37:56.995Z,17.05
2023-02-22T22:40:26.091Z,16.73
2023-02-22T22:42:53.655Z,15.70
2023-02-22T22:45:31.508Z,16.70
2023-02-22T22:48:09.923Z,16.70
2023-02-22T22:50:41.811Z,17.50
2023-02-22T22:55:53.237Z,18.45
2023-02-22T22:58:28.786Z,18.10
2023-02-22T23:01:02.836Z,19.35
2023-02-22T23:03:43.667Z,19.10
2023-02-22T23:06:15.811Z,19.02
2023-02-22T23:08:45.782Z,19.73
2023-02-22T23:11:13.567Z,21.00
2023-02-22T23:13:44.012Z,21.40
2023-02-22T23:21:45.360Z,21.85
2023-02-22T23:24:23.671Z,20.73
2023-02-22T23:27:17.529Z,22.13
2023-02-22T23:29:49.865Z,22.83
2023-02-22T23:32:24.967Z,21.08
2023-02-22T23:35:13.135Z,23.33
2023-02-22T23:38:17.867Z,23.13
2023-02-22T23:41:07.689Z,22.20
2023-02-22T23:43:44.644Z,21.85
2023-02-22T23:46:33.387Z,21.67
2023-02-22T23:49:02.639Z,22.13
2023-02-22T23:51:39.671Z,21.95
2023-02-22T23:54:12.680Z,22.35
2023-02-22T23:56:56.009Z,22.55
2023-02-22T23:59:32.823Z,21.17
